createdAt,value
2019-04-14T00:01:58.844Z,4.40
2019-04-14T00:04:42.233Z,4.40
2019-04-14T00:07:12.196Z,4.40
2019-04-14T00:09:41.597Z,4.40
2019-04-14T00:12:12.616Z,4.30
2019-04-14T00:14:42.507Z,4.30
2019-04-14T00:17:12.980Z,4.30
2019-04-14T00:19:43.452Z,4.30
2019-04-14T00:22:14.011Z,4.30
2019-04-14T00:24:44.507Z,4.30
2019-04-14T00:27:14.980Z,4.30
2019-04-14T00:29:44.352Z,4.30
2019-04-14T00:32:14.105Z,4.30
2019-04-14T00:34:52.699Z,4.20
2019-04-14T00:37:36.240Z,4.10
2019-04-14T00:40:10.485Z,4.10
2019-04-14T00:42:58.914Z,4.10
2019-04-14T00:45:48.305Z,4.00
2019-04-14T00:48:20.933Z,4.00
2019-04-14T00:50:50.278Z,4.10
2019-04-14T00:53:20.605Z,4.10
2019-04-14T00:55:51.120Z,4.10
2019-04-14T00:58:21.460Z,4.20
2019-04-14T01:00:53.698Z,4.20
2019-04-14T01:03:23.096Z,4.10
2019-04-14T01:05:52.606Z,4.10
2019-04-14T01:08:22.755Z,4.10
2019-04-14T01:10:52.139Z,4.10
2019-04-14T01:13:22.204Z,4.10
2019-04-14T01:16:01.833Z,4.10
2019-04-14T01:18:23.884Z,4.10
2019-04-14T01:20:53.619Z,4.10
2019-04-14T01:23:23.925Z,4.10
2019-04-14T01:25:54.224Z,4.10
2019-04-14T01:28:24.391Z,4.10
2019-04-14T01:30:54.500Z,4.00
2019-04-14T01:33:25.012Z,4.00
2019-04-14T01:35:55.288Z,4.00
2019-04-14T01:38:25.523Z,4.00
2019-04-14T01:40:55.302Z,4.00
2019-04-14T01:43:25.654Z,4.00
2019-04-14T01:46:06.086Z,4.00
2019-04-14T01:48:25.980Z,4.00
2019-04-14T01:51:26.717Z,4.00
2019-04-14T01:54:17.900Z,4.00
2019-04-14T01:56:55.907Z,4.00
2019-04-14T01:59:26.268Z,4.10
2019-04-14T02:01:56.578Z,4.10
2019-04-14T02:04:26.721Z,4.10
2019-04-14T02:06:57.369Z,4.00
2019-04-14T02:09:27.240Z,4.00
2019-04-14T02:11:57.441Z,4.10
2019-04-14T02:14:27.754Z,4.10
2019-04-14T02:17:00.544Z,4.20
2019-04-14T02:19:28.847Z,4.20
2019-04-14T02:21:58.551Z,4.20
2019-04-14T02:24:28.873Z,4.20
2019-04-14T02:26:59.144Z,4.20
2019-04-14T02:29:29.660Z,4.20
2019-04-14T02:32:27.272Z,4.20
2019-04-14T02:34:57.961Z,4.30
2019-04-14T02:37:43.324Z,4.30
2019-04-14T02:42:36.695Z,4.20
2019-04-14T02:45:00.700Z,4.20
2019-04-14T02:50:08.373Z,4.20
2019-04-14T02:57:38.442Z,4.20
2019-04-14T03:00:15.454Z,4.10
2019-04-14T03:05:01.935Z,4.10
2019-04-14T03:07:41.973Z,4.10
2019-04-14T03:10:13.089Z,4.10
2019-04-14T03:12:40.552Z,4.10
2019-04-14T03:15:08.107Z,4.10
2019-04-14T03:18:20.504Z,4.10
2019-04-14T03:21:11.208Z,4.10
2019-04-14T03:23:45.240Z,4.20
2019-04-14T03:26:17.833Z,4.10
2019-04-14T03:28:51.729Z,4.10
2019-04-14T03:37:21.996Z,4.10
2019-04-14T03:41:31.224Z,4.00
2019-04-14T03:43:54.279Z,4.00
2019-04-14T03:46:37.104Z,4.10
2019-04-14T03:49:05.993Z,4.00
2019-04-14T03:51:48.278Z,4.10
2019-04-14T03:53:57.585Z,4.10
2019-04-14T03:56:29.790Z,4.10
2019-04-14T03:58:59.844Z,4.10
2019-04-14T04:01:30.217Z,4.10
2019-04-14T04:04:00.658Z,4.00
2019-04-14T04:06:31.257Z,4.00
2019-04-14T04:09:01.796Z,4.00
2019-04-14T04:11:34.379Z,3.90
2019-04-14T04:14:05.158Z,3.90
2019-04-14T04:16:57.350Z,3.90
2019-04-14T04:19:47.725Z,3.90
2019-04-14T04:22:34.778Z,3.90
2019-04-14T04:25:24.754Z,3.80
2019-04-14T04:28:23.206Z,3.80
2019-04-14T04:31:04.509Z,3.70
2019-04-14T04:33:50.550Z,3.70
2019-04-14T04:36:24.806Z,3.80
2019-04-14T04:39:01.795Z,3.70
2019-04-14T04:41:31.912Z,3.70
2019-04-14T04:44:01.169Z,3.70
2019-04-14T04:46:30.929Z,3.70
2019-04-14T04:49:10.857Z,3.80
2019-04-14T04:51:31.636Z,3.70
2019-04-14T04:54:01.708Z,3.70
2019-04-14T04:56:31.825Z,3.70
2019-04-14T04:59:01.221Z,3.70
2019-04-14T05:01:31.514Z,3.70
2019-04-14T05:04:02.149Z,3.70
2019-04-14T05:07:05.929Z,3.70
2019-04-14T05:09:53.479Z,3.70
2019-04-14T05:12:41.390Z,3.70
2019-04-14T05:15:40.108Z,3.70
2019-04-14T05:18:13.469Z,3.70
2019-04-14T05:20:42.696Z,3.80
2019-04-14T05:23:12.623Z,3.80
2019-04-14T05:25:42.980Z,3.80
2019-04-14T05:28:13.407Z,3.90
2019-04-14T05:30:43.611Z,3.90
2019-04-14T05:33:14.089Z,3.90
2019-04-14T05:35:44.514Z,3.90
2019-04-14T05:38:14.715Z,3.90
2019-04-14T05:40:45.052Z,3.80
2019-04-14T05:43:27.366Z,3.90
2019-04-14T05:45:45.793Z,3.90
2019-04-14T05:48:16.080Z,3.90
2019-04-14T05:50:45.421Z,3.90
2019-04-14T05:53:15.912Z,4.00
2019-04-14T05:55:45.990Z,4.00
2019-04-14T05:58:16.410Z,4.10
2019-04-14T06:00:47.089Z,4.10
2019-04-14T06:03:16.782Z,4.20
2019-04-14T06:05:46.372Z,4.20
2019-04-14T06:08:15.909Z,4.20
2019-04-14T06:10:45.154Z,4.30
2019-04-14T06:13:14.460Z,4.30
2019-04-14T06:15:43.743Z,4.30
2019-04-14T06:18:12.988Z,4.30
2019-04-14T06:20:42.800Z,4.30
2019-04-14T06:23:12.054Z,4.30
2019-04-14T06:25:41.400Z,4.30
2019-04-14T06:28:10.643Z,4.30
2019-04-14T06:31:04.880Z,4.30
2019-04-14T06:33:48.970Z,4.30
2019-04-14T06:36:36.319Z,4.30
2019-04-14T06:39:10.172Z,4.30
2019-04-14T06:41:39.772Z,4.30
2019-04-14T06:44:09.447Z,4.30
2019-04-14T06:46:38.676Z,4.30
2019-04-14T06:49:08.005Z,4.40
2019-04-14T06:51:37.241Z,4.40
2019-04-14T06:54:06.597Z,4.50
2019-04-14T06:56:36.884Z,4.50
2019-04-14T06:59:06.137Z,4.50
2019-04-14T07:01:35.488Z,4.50
2019-04-14T07:04:04.820Z,4.60
2019-04-14T07:06:34.172Z,4.70
2019-04-14T07:09:04.911Z,4.70
2019-04-14T07:11:34.429Z,4.60
2019-04-14T07:14:04.998Z,4.60
2019-04-14T07:16:34.446Z,4.70
2019-04-14T07:19:03.748Z,4.60
2019-04-14T07:21:33.158Z,4.70
2019-04-14T07:24:02.823Z,4.70
2019-04-14T07:26:32.122Z,4.70
2019-04-14T07:29:01.457Z,4.80
2019-04-14T07:31:48.528Z,4.70
2019-04-14T07:34:39.698Z,4.70
2019-04-14T07:37:28.106Z,4.70
2019-04-14T07:40:01.508Z,4.70
2019-04-14T07:42:49.964Z,4.70
2019-04-14T07:45:34.310Z,4.60
2019-04-14T07:48:23.144Z,4.60
2019-04-14T07:50:59.235Z,4.50
2019-04-14T07:53:46.204Z,4.60
2019-04-14T07:56:33.805Z,4.60
2019-04-14T07:59:05.610Z,4.50
2019-04-14T08:01:40.623Z,4.50
2019-04-14T08:04:16.421Z,4.50
2019-04-14T08:06:49.281Z,4.50
2019-04-14T08:09:18.873Z,4.40
2019-04-14T08:11:49.206Z,4.40
2019-04-14T08:14:18.603Z,4.40
2019-04-14T08:16:48.211Z,4.30
2019-04-14T08:19:17.623Z,4.30
2019-04-14T08:21:47.270Z,4.30
2019-04-14T08:24:16.688Z,4.30
2019-04-14T08:26:45.940Z,4.30
2019-04-14T08:29:15.257Z,4.30
2019-04-14T08:31:44.537Z,4.40
2019-04-14T08:34:14.226Z,4.40
2019-04-14T08:36:43.520Z,4.40
2019-04-14T08:39:13.230Z,4.40
2019-04-14T08:42:04.743Z,4.40
2019-04-14T08:44:53.279Z,4.40
2019-04-14T08:47:38.195Z,4.50
2019-04-14T08:50:38.903Z,4.50
2019-04-14T08:53:25.601Z,4.60
2019-04-14T08:56:09.368Z,4.60
2019-04-14T08:59:03.844Z,4.70
2019-04-14T09:01:55.184Z,4.70
2019-04-14T09:04:38.197Z,4.70
2019-04-14T09:07:35.988Z,4.80
2019-04-14T09:10:16.003Z,4.80
2019-04-14T09:12:46.908Z,4.80
2019-04-14T09:15:16.254Z,4.80
2019-04-14T09:17:45.832Z,4.80
2019-04-14T09:20:15.225Z,4.90
2019-04-14T09:22:44.861Z,5.00
2019-04-14T09:25:14.221Z,5.00
2019-04-14T09:27:43.445Z,5.10
2019-04-14T09:30:13.146Z,5.10
2019-04-14T09:32:42.497Z,5.20
2019-04-14T09:35:11.844Z,5.10
2019-04-14T09:37:41.185Z,5.10
2019-04-14T09:40:10.418Z,5.10
2019-04-14T09:42:39.736Z,5.10
2019-04-14T09:45:09.020Z,5.10
2019-04-14T09:47:38.492Z,5.10
2019-04-14T09:50:08.062Z,5.00
2019-04-14T09:52:37.400Z,5.10
2019-04-14T09:55:06.822Z,5.10
2019-04-14T09:57:36.160Z,5.30
2019-04-14T10:00:07.550Z,5.40
2019-04-14T10:02:37.035Z,5.40
2019-04-14T10:05:06.577Z,5.40
2019-04-14T10:07:35.940Z,5.50
2019-04-14T10:10:05.421Z,5.50
2019-04-14T10:12:35.413Z,5.50
2019-04-14T10:15:04.957Z,5.50
2019-04-14T10:17:34.647Z,5.50
2019-04-14T10:20:04.023Z,5.50
2019-04-14T10:22:34.486Z,5.60
2019-04-14T10:25:04.345Z,5.60
2019-04-14T10:27:33.660Z,5.70
2019-04-14T10:30:03.122Z,5.70
2019-04-14T10:32:34.761Z,5.70
2019-04-14T10:35:04.165Z,5.70
2019-04-14T10:37:33.616Z,5.70
2019-04-14T10:40:05.867Z,5.80
2019-04-14T10:42:34.225Z,5.80
2019-04-14T10:45:03.548Z,5.90
2019-04-14T10:47:32.931Z,6.00
2019-04-14T10:50:02.190Z,6.00
2019-04-14T10:52:31.468Z,6.00
2019-04-14T10:55:01.036Z,6.00
2019-04-14T10:57:30.440Z,6.10
2019-04-14T10:59:59.720Z,6.20
2019-04-14T11:02:30.166Z,6.40
2019-04-14T11:04:59.516Z,6.50
2019-04-14T11:07:30.132Z,6.50
2019-04-14T11:09:59.474Z,6.60
2019-04-14T11:12:28.744Z,6.50
2019-04-14T11:14:58.389Z,6.50
2019-04-14T11:17:27.681Z,6.40
2019-04-14T11:19:56.953Z,6.40
2019-04-14T11:22:26.215Z,6.40
2019-04-14T11:24:55.469Z,6.60
2019-04-14T11:27:24.812Z,6.70
2019-04-14T11:29:54.221Z,6.90
2019-04-14T11:32:58.060Z,7.00
2019-04-14T11:35:37.382Z,7.00
2019-04-14T11:38:13.804Z,7.10
2019-04-14T11:40:46.428Z,7.00
2019-04-14T11:43:16.891Z,7.00
2019-04-14T11:45:46.179Z,6.90
2019-04-14T11:48:15.509Z,6.90
2019-04-14T11:50:44.840Z,6.90
2019-04-14T11:53:14.126Z,6.90
2019-04-14T11:55:43.396Z,6.90
2019-04-14T11:58:12.797Z,6.90
2019-04-14T12:00:54.314Z,6.90
2019-04-14T12:03:43.446Z,6.90
2019-04-14T12:06:43.720Z,6.90
2019-04-14T12:09:22.120Z,6.80
2019-04-14T12:11:51.378Z,6.60
2019-04-14T12:14:20.763Z,6.50
2019-04-14T12:16:50.008Z,6.50
2019-04-14T12:19:19.264Z,6.40
2019-04-14T12:21:48.536Z,6.30
2019-04-14T12:24:17.885Z,6.20
2019-04-14T12:26:47.218Z,6.20
2019-04-14T12:29:16.849Z,6.20
2019-04-14T12:31:47.308Z,6.10
2019-04-14T12:34:18.331Z,6.20
2019-04-14T12:36:47.552Z,6.20
2019-04-14T12:39:21.388Z,6.20
2019-04-14T12:42:09.801Z,6.30
2019-04-14T12:44:54.317Z,6.50
2019-04-14T12:47:41.424Z,6.70
2019-04-14T12:50:21.880Z,6.80
2019-04-14T12:52:51.205Z,7.00
2019-04-14T12:55:20.538Z,7.10
2019-04-14T12:57:52.945Z,7.10
2019-04-14T13:00:41.656Z,7.00
2019-04-14T13:03:11.168Z,7.00
2019-04-14T13:05:40.461Z,6.90
2019-04-14T13:08:09.817Z,6.80
2019-04-14T13:10:39.040Z,6.70
2019-04-14T13:13:09.345Z,6.60
2019-04-14T13:15:38.625Z,6.60
2019-04-14T13:18:07.947Z,6.50
2019-04-14T13:20:37.220Z,6.50
2019-04-14T13:23:06.513Z,6.50
2019-04-14T13:25:35.935Z,6.40
2019-04-14T13:28:05.272Z,6.40
2019-04-14T13:30:36.902Z,6.40
2019-04-14T13:33:06.384Z,6.30
2019-04-14T13:35:45.056Z,6.30
2019-04-14T13:38:14.438Z,6.20
2019-04-14T13:40:44.348Z,6.20
2019-04-14T13:43:13.684Z,6.20
2019-04-14T13:45:43.065Z,6.10
2019-04-14T13:48:12.352Z,6.10
2019-04-14T13:50:41.672Z,6.00
2019-04-14T13:53:10.960Z,6.00
2019-04-14T13:55:40.326Z,6.00
2019-04-14T13:58:09.577Z,5.90
2019-04-14T14:00:38.880Z,5.90
2019-04-14T14:03:08.262Z,5.90
2019-04-14T14:05:38.058Z,5.90
2019-04-14T14:08:07.385Z,5.80
2019-04-14T14:10:37.105Z,5.80
2019-04-14T14:13:24.889Z,5.80
2019-04-14T14:16:12.141Z,5.80
2019-04-14T14:18:59.005Z,5.80
2019-04-14T14:21:50.430Z,5.80
2019-04-14T14:24:29.851Z,5.80
2019-04-14T14:26:59.484Z,5.70
2019-04-14T14:29:28.925Z,5.70
2019-04-14T14:31:58.710Z,5.80
2019-04-14T14:34:27.936Z,5.70
2019-04-14T14:36:57.329Z,5.70
2019-04-14T14:39:26.640Z,5.70
2019-04-14T14:41:55.926Z,5.60
2019-04-14T14:44:29.948Z,5.60
2019-04-14T14:47:04.365Z,5.50
2019-04-14T14:49:49.423Z,5.50
2019-04-14T14:52:20.053Z,5.50
2019-04-14T14:54:49.356Z,5.50
2019-04-14T14:57:18.884Z,5.40
2019-04-14T14:59:48.283Z,5.40
2019-04-14T15:02:17.687Z,5.30
2019-04-14T15:04:46.938Z,5.30
2019-04-14T15:07:16.313Z,5.30
2019-04-14T15:09:45.754Z,5.20
2019-04-14T15:12:15.283Z,5.20
2019-04-14T15:14:44.603Z,5.20
2019-04-14T15:17:13.928Z,5.20
2019-04-14T15:19:43.478Z,5.20
2019-04-14T15:22:12.885Z,5.20
2019-04-14T15:24:42.338Z,5.20
2019-04-14T15:27:11.700Z,5.30
2019-04-14T15:29:41.000Z,5.30
2019-04-14T15:32:10.358Z,5.30
2019-04-14T15:34:39.633Z,5.30
2019-04-14T15:37:08.954Z,5.30
2019-04-14T15:39:38.516Z,5.20
2019-04-14T15:42:08.168Z,5.20
2019-04-14T15:44:37.500Z,5.20
2019-04-14T15:47:06.757Z,5.20
2019-04-14T15:49:36.085Z,5.20
2019-04-14T15:52:05.352Z,5.10
2019-04-14T15:54:34.731Z,5.10
2019-04-14T15:57:09.653Z,5.10
2019-04-14T16:00:04.205Z,5.10
2019-04-14T16:02:55.425Z,5.10
2019-04-14T16:05:30.665Z,5.10
2019-04-14T16:08:09.116Z,5.20
2019-04-14T16:10:58.594Z,5.20
2019-04-14T16:13:34.889Z,5.20
2019-04-14T16:16:23.674Z,5.20
2019-04-14T16:18:58.087Z,5.20
2019-04-14T16:21:27.452Z,5.20
2019-04-14T16:23:56.778Z,5.20
2019-04-14T16:26:48.281Z,5.20
2019-04-14T16:29:27.954Z,5.20
2019-04-14T16:32:06.088Z,5.20
2019-04-14T16:34:54.667Z,5.10
2019-04-14T16:37:24.020Z,5.10
2019-04-14T16:39:53.266Z,5.10
2019-04-14T16:42:22.548Z,5.20
2019-04-14T16:44:51.941Z,5.20
2019-04-14T16:47:21.332Z,5.20
2019-04-14T16:49:50.683Z,5.20
2019-04-14T16:52:31.345Z,5.10
2019-04-14T16:55:19.732Z,5.10
2019-04-14T16:58:20.788Z,5.10
2019-04-14T17:00:58.446Z,5.10
2019-04-14T17:03:27.776Z,5.10
2019-04-14T17:05:57.114Z,5.10
2019-04-14T17:08:26.382Z,5.10
2019-04-14T17:10:55.709Z,5.10
2019-04-14T17:13:26.585Z,5.00
2019-04-14T17:16:13.970Z,5.10
2019-04-14T17:18:49.176Z,5.10
2019-04-14T17:21:36.412Z,5.00
2019-04-14T17:24:39.937Z,5.10
2019-04-14T17:27:28.458Z,5.10
2019-04-14T17:30:17.925Z,5.10
2019-04-14T17:33:01.049Z,5.10
2019-04-14T17:35:46.916Z,5.10
2019-04-14T17:38:26.898Z,5.10
2019-04-14T17:41:12.708Z,5.10
2019-04-14T17:43:50.573Z,5.10
2019-04-14T17:46:41.924Z,5.10
2019-04-14T17:49:30.378Z,5.10
2019-04-14T17:52:17.444Z,5.10
2019-04-14T17:55:19.353Z,5.10
2019-04-14T17:58:04.192Z,5.00
2019-04-14T18:00:40.920Z,5.00
2019-04-14T18:03:32.797Z,5.00
2019-04-14T18:06:15.536Z,5.00
2019-04-14T18:09:05.956Z,5.00
2019-04-14T18:11:49.770Z,5.10
2019-04-14T18:14:36.913Z,5.00
2019-04-14T18:17:15.289Z,5.00
2019-04-14T18:19:51.858Z,5.00
2019-04-14T18:22:21.665Z,5.00
2019-04-14T18:24:50.929Z,5.00
2019-04-14T18:27:20.209Z,5.00
2019-04-14T18:29:54.549Z,5.10
2019-04-14T18:32:31.453Z,5.00
2019-04-14T18:35:18.447Z,5.00
2019-04-14T18:38:03.442Z,5.10
2019-04-14T18:40:46.988Z,5.10
2019-04-14T18:43:50.672Z,5.10
2019-04-14T18:46:40.094Z,5.10
2019-04-14T18:49:24.179Z,5.10
2019-04-14T18:52:04.411Z,5.10
2019-04-14T18:54:55.693Z,5.10
2019-04-14T18:57:41.097Z,5.20
2019-04-14T19:00:28.416Z,5.10
2019-04-14T19:02:57.844Z,5.10
2019-04-14T19:05:27.363Z,5.10
2019-04-14T19:07:56.776Z,5.10
2019-04-14T19:10:26.345Z,5.10
2019-04-14T19:13:10.646Z,5.20
2019-04-14T19:15:43.589Z,5.20
2019-04-14T19:18:25.574Z,5.20
2019-04-14T19:20:59.782Z,5.20
2019-04-14T19:23:29.121Z,5.20
2019-04-14T19:25:58.580Z,5.20
2019-04-14T19:28:29.081Z,5.20
2019-04-14T19:30:58.509Z,5.20
2019-04-14T19:33:27.986Z,5.20
2019-04-14T19:35:57.341Z,5.20
2019-04-14T19:38:26.695Z,5.20
2019-04-14T19:40:56.150Z,5.20
2019-04-14T19:43:25.750Z,5.30
2019-04-14T19:45:56.655Z,5.30
2019-04-14T19:48:26.278Z,5.20
2019-04-14T19:50:55.769Z,5.20
2019-04-14T19:53:25.537Z,5.20
2019-04-14T19:55:55.232Z,5.20
2019-04-14T19:58:24.977Z,5.20
2019-04-14T20:00:54.412Z,5.20
2019-04-14T20:03:23.849Z,5.20
2019-04-14T20:05:53.376Z,5.20
2019-04-14T20:08:22.650Z,5.20
2019-04-14T20:10:51.913Z,5.20
2019-04-14T20:13:21.625Z,5.20
2019-04-14T20:16:16.156Z,5.20
2019-04-14T20:19:13.678Z,5.20
2019-04-14T20:22:08.165Z,5.20
2019-04-14T20:24:56.638Z,5.20
2019-04-14T20:27:32.226Z,5.20
2019-04-14T20:30:06.176Z,5.20
2019-04-14T20:32:37.049Z,5.20
2019-04-14T20:35:06.396Z,5.20
2019-04-14T20:37:35.840Z,5.20
2019-04-14T20:40:05.532Z,5.20
2019-04-14T20:42:35.155Z,5.20
2019-04-14T20:45:06.453Z,5.20
2019-04-14T20:47:36.057Z,5.20
2019-04-14T20:50:06.158Z,5.10
2019-04-14T20:52:35.561Z,5.10
2019-04-14T20:55:05.292Z,5.20
2019-04-14T20:57:35.740Z,5.20
2019-04-14T21:00:05.761Z,5.10
2019-04-14T21:02:59.043Z,5.10
2019-04-14T21:05:38.789Z,5.10
2019-04-14T21:08:33.894Z,5.10
2019-04-14T21:11:07.505Z,5.20
2019-04-14T21:13:51.724Z,5.20
2019-04-14T21:16:29.041Z,5.20
2019-04-14T21:19:09.885Z,5.20
2019-04-14T21:21:48.018Z,5.20
2019-04-14T21:24:36.392Z,5.30
2019-04-14T21:27:20.020Z,5.30
2019-04-14T21:30:11.184Z,5.30
2019-04-14T21:32:45.621Z,5.20
2019-04-14T21:35:49.141Z,5.20
2019-04-14T21:38:38.603Z,5.20
2019-04-14T21:41:20.628Z,5.20
2019-04-14T21:43:49.949Z,5.20
2019-04-14T21:46:19.483Z,5.20
2019-04-14T21:48:48.791Z,5.10
2019-04-14T21:51:18.276Z,5.10
2019-04-14T21:53:48.036Z,5.10
2019-04-14T21:56:17.417Z,5.10
2019-04-14T21:58:55.412Z,5.20
2019-04-14T22:01:50.893Z,5.10
2019-04-14T22:04:45.894Z,5.10
2019-04-14T22:07:26.480Z,5.00
2019-04-14T22:09:59.477Z,5.00
2019-04-14T22:12:29.352Z,5.00
2019-04-14T22:14:58.603Z,5.00
2019-04-14T22:17:28.013Z,5.00
2019-04-14T22:19:57.272Z,5.00
2019-04-14T22:22:26.541Z,5.00
2019-04-14T22:24:55.916Z,5.00
2019-04-14T22:27:25.229Z,5.10
2019-04-14T22:29:54.566Z,5.10
2019-04-14T22:32:23.972Z,5.10
2019-04-14T22:34:53.269Z,5.10
2019-04-14T22:37:22.669Z,5.10
2019-04-14T22:39:52.253Z,5.10
2019-04-14T22:42:21.556Z,5.00
2019-04-14T22:44:50.840Z,4.90
2019-04-14T22:47:20.272Z,4.90
2019-04-14T22:49:49.525Z,4.80
2019-04-14T22:52:18.856Z,4.80
2019-04-14T22:54:48.092Z,4.90
2019-04-14T22:57:17.404Z,4.90
2019-04-14T22:59:46.644Z,4.90
2019-04-14T23:02:27.932Z,4.90
2019-04-14T23:05:10.700Z,4.80
2019-04-14T23:08:01.658Z,4.80
2019-04-14T23:10:42.627Z,4.80
2019-04-14T23:13:20.708Z,4.80
2019-04-14T23:15:57.473Z,4.80
2019-04-14T23:18:31.232Z,4.90
2019-04-14T23:21:23.105Z,4.90
2019-04-14T23:24:10.465Z,4.90
2019-04-14T23:26:51.858Z,4.90
2019-04-14T23:29:11.729Z,4.90
2019-04-14T23:31:41.037Z,4.90
2019-04-14T23:34:10.304Z,4.90
2019-04-14T23:36:39.529Z,4.90
2019-04-14T23:39:11.045Z,4.90
2019-04-14T23:41:40.277Z,4.80
2019-04-14T23:44:09.526Z,4.80
2019-04-14T23:46:38.773Z,4.80
2019-04-14T23:49:08.101Z,4.80
2019-04-14T23:51:38.396Z,4.80
2019-04-14T23:54:07.664Z,4.80
2019-04-14T23:56:36.898Z,4.80
2019-04-14T23:59:06.137Z,4.80
